createdAt,value
2018-05-23T00:01:14.565Z,15.80
2018-05-23T00:03:48.987Z,15.80
2018-05-23T00:06:18.308Z,15.70
2018-05-23T00:08:49.322Z,15.80
2018-05-23T00:11:42.808Z,15.80
2018-05-23T00:14:13.447Z,15.80
2018-05-23T00:16:55.930Z,15.80
2018-05-23T00:19:28.803Z,15.80
2018-05-23T00:22:09.555Z,15.80
2018-05-23T00:24:49.905Z,15.80
2018-05-23T00:27:19.370Z,15.70
2018-05-23T00:29:51.721Z,15.70
2018-05-23T00:32:23.860Z,15.60
2018-05-23T00:34:54.241Z,15.60
2018-05-23T00:37:27.831Z,15.50
2018-05-23T00:39:57.487Z,15.50
2018-05-23T00:42:26.855Z,15.50
2018-05-23T00:45:01.550Z,15.50
2018-05-23T00:47:33.607Z,15.40
2018-05-23T00:50:13.121Z,15.40
2018-05-23T00:52:43.568Z,15.40
2018-05-23T00:55:30.967Z,15.40
2018-05-23T00:58:09.664Z,15.40
2018-05-23T01:00:45.331Z,15.30
2018-05-23T01:03:15.940Z,15.30
2018-05-23T01:05:49.331Z,15.30
2018-05-23T01:08:36.415Z,15.30
2018-05-23T01:11:14.603Z,15.20
2018-05-23T01:13:53.583Z,15.20
2018-05-23T01:16:26.754Z,15.20
2018-05-23T01:18:59.944Z,15.20
2018-05-23T01:21:38.317Z,15.20
2018-05-23T01:24:07.612Z,15.20
2018-05-23T01:26:49.104Z,15.20
2018-05-23T01:29:19.476Z,15.20
2018-05-23T01:31:57.588Z,15.20
2018-05-23T01:34:29.481Z,15.20
2018-05-23T01:37:10.475Z,15.20
2018-05-23T01:39:43.925Z,15.20
2018-05-23T01:42:16.595Z,15.20
2018-05-23T01:45:01.382Z,15.10
2018-05-23T01:47:48.027Z,15.00
2018-05-23T01:50:35.642Z,14.90
2018-05-23T01:53:29.577Z,14.90
2018-05-23T01:55:57.983Z,14.70
2018-05-23T01:58:27.038Z,14.60
2018-05-23T02:00:55.377Z,14.50
2018-05-23T02:03:23.867Z,14.50
2018-05-23T02:05:52.734Z,14.40
2018-05-23T02:08:24.230Z,14.40
2018-05-23T02:10:54.112Z,14.30
2018-05-23T02:13:22.455Z,14.20
2018-05-23T02:15:55.218Z,14.20
2018-05-23T02:18:28.715Z,14.10
2018-05-23T02:20:58.680Z,14.10
2018-05-23T02:23:29.733Z,14.10
2018-05-23T02:26:01.467Z,14.00
2018-05-23T02:28:33.596Z,13.90
2018-05-23T02:31:01.880Z,13.90
2018-05-23T02:33:38.540Z,13.90
2018-05-23T02:36:08.896Z,13.90
2018-05-23T02:38:47.135Z,13.80
2018-05-23T02:41:15.446Z,13.80
2018-05-23T02:43:44.526Z,13.70
2018-05-23T02:46:19.891Z,13.70
2018-05-23T02:48:50.124Z,13.70
2018-05-23T02:51:18.567Z,13.70
2018-05-23T02:53:46.945Z,13.60
2018-05-23T02:56:15.259Z,13.60
2018-05-23T02:58:44.555Z,13.60
2018-05-23T03:01:14.879Z,13.50
2018-05-23T03:03:49.775Z,13.50
2018-05-23T03:06:20.055Z,13.50
2018-05-23T03:08:59.224Z,13.40
2018-05-23T03:11:38.995Z,13.40
2018-05-23T03:14:08.226Z,13.30
2018-05-23T03:16:40.411Z,13.30
2018-05-23T03:19:33.371Z,13.30
2018-05-23T03:22:04.513Z,13.40
2018-05-23T03:24:40.315Z,13.40
2018-05-23T03:27:19.035Z,13.40
2018-05-23T03:29:51.234Z,13.50
2018-05-23T03:32:34.182Z,13.50
2018-05-23T03:35:11.177Z,13.50
2018-05-23T03:37:59.266Z,13.50
2018-05-23T03:40:33.436Z,13.50
2018-05-23T03:43:32.915Z,13.60
2018-05-23T03:46:06.231Z,13.60
2018-05-23T03:48:47.398Z,13.70
2018-05-23T03:51:19.669Z,13.70
2018-05-23T03:53:49.838Z,13.80
2018-05-23T03:56:28.535Z,13.70
2018-05-23T03:59:07.222Z,13.80
2018-05-23T04:05:08.015Z,13.90
2018-05-23T04:07:39.999Z,13.90
2018-05-23T04:10:08.393Z,14.00
2018-05-23T04:12:36.716Z,14.10
2018-05-23T04:15:15.955Z,14.20
2018-05-23T04:17:52.720Z,14.20
2018-05-23T04:20:21.142Z,14.30
2018-05-23T04:22:51.463Z,14.30
2018-05-23T04:25:36.705Z,14.40
2018-05-23T04:28:12.690Z,14.50
2018-05-23T04:30:45.012Z,14.50
2018-05-23T04:33:15.010Z,14.60
2018-05-23T04:35:56.837Z,14.70
2018-05-23T04:38:27.824Z,14.80
2018-05-23T04:41:00.837Z,14.80
2018-05-23T04:43:30.108Z,14.90
2018-05-23T04:46:04.709Z,15.00
2018-05-23T04:48:38.799Z,15.10
2018-05-23T04:51:24.095Z,15.20
2018-05-23T04:53:52.391Z,15.40
2018-05-23T04:56:21.666Z,15.40
2018-05-23T04:58:57.337Z,15.50
2018-05-23T05:01:31.632Z,15.70
2018-05-23T05:04:26.645Z,15.80
2018-05-23T05:06:55.885Z,15.80
2018-05-23T05:09:31.529Z,15.80
2018-05-23T05:12:04.565Z,15.70
2018-05-23T05:14:37.334Z,15.50
2018-05-23T05:17:12.497Z,15.50
2018-05-23T05:19:52.372Z,15.50
2018-05-23T05:22:20.670Z,15.50
2018-05-23T05:24:48.970Z,15.50
2018-05-23T05:27:17.240Z,15.50
2018-05-23T05:29:47.318Z,15.60
2018-05-23T05:32:15.616Z,15.60
2018-05-23T05:34:43.892Z,15.60
2018-05-23T05:37:12.141Z,15.60
2018-05-23T05:39:40.450Z,15.60
2018-05-23T05:42:08.827Z,15.60
2018-05-23T05:44:38.122Z,15.70
2018-05-23T05:47:06.381Z,15.70
2018-05-23T05:49:40.954Z,15.80
2018-05-23T05:52:29.733Z,15.90
2018-05-23T05:55:09.907Z,15.80
2018-05-23T05:58:03.869Z,15.90
2018-05-23T06:00:38.130Z,16.00
2018-05-23T06:03:06.432Z,16.20
2018-05-23T06:05:54.939Z,16.50
2018-05-23T06:08:23.296Z,16.50
2018-05-23T06:10:51.595Z,16.70
2018-05-23T06:13:30.008Z,16.70
2018-05-23T06:16:02.210Z,16.90
2018-05-23T06:18:36.234Z,17.10
2018-05-23T06:21:06.227Z,17.10
2018-05-23T06:23:38.417Z,17.10
2018-05-23T06:26:08.414Z,17.00
2018-05-23T06:28:46.774Z,17.10
2018-05-23T06:31:16.004Z,17.10
2018-05-23T06:33:52.211Z,17.00
2018-05-23T06:36:23.031Z,16.90
2018-05-23T06:38:56.155Z,16.90
2018-05-23T06:41:30.015Z,16.80
2018-05-23T06:43:59.889Z,16.70
2018-05-23T06:46:32.335Z,16.70
2018-05-23T06:49:04.499Z,16.70
2018-05-23T06:51:35.546Z,16.50
2018-05-23T06:54:09.547Z,16.50
2018-05-23T06:59:46.347Z,16.40
2018-05-23T07:02:19.287Z,16.50
2018-05-23T07:04:49.575Z,16.50
2018-05-23T07:07:18.920Z,16.50
2018-05-23T07:09:49.183Z,16.50
2018-05-23T07:12:28.861Z,16.70
2018-05-23T07:14:57.220Z,16.60
2018-05-23T07:17:37.416Z,16.70
2018-05-23T07:20:06.724Z,16.70
2018-05-23T07:22:36.439Z,16.70
2018-05-23T07:25:05.800Z,16.70
2018-05-23T07:27:37.622Z,16.60
2018-05-23T07:30:06.960Z,16.70
2018-05-23T07:32:59.327Z,16.60
2018-05-23T07:35:34.460Z,16.60
2018-05-23T07:38:15.382Z,16.60
2018-05-23T07:43:55.020Z,16.80
2018-05-23T07:46:29.147Z,16.80
2018-05-23T07:48:58.478Z,16.90
2018-05-23T07:51:33.567Z,17.00
2018-05-23T07:54:15.912Z,17.20
2018-05-23T07:56:45.017Z,17.20
2018-05-23T07:59:13.340Z,17.10
2018-05-23T08:01:41.600Z,17.30
2018-05-23T08:04:10.039Z,17.30
2018-05-23T08:06:39.076Z,17.40
2018-05-23T08:09:07.375Z,17.40
2018-05-23T08:11:36.454Z,17.40
2018-05-23T08:14:05.765Z,17.70
2018-05-23T08:16:34.145Z,17.70
2018-05-23T08:19:02.438Z,17.70
2018-05-23T08:21:49.032Z,18.00
2018-05-23T08:24:19.385Z,18.10
2018-05-23T08:27:07.499Z,18.30
2018-05-23T08:30:04.625Z,18.20
2018-05-23T08:32:33.880Z,18.20
2018-05-23T08:35:06.046Z,18.00
2018-05-23T08:37:36.902Z,18.10
2018-05-23T08:40:06.356Z,18.10
2018-05-23T08:42:52.539Z,18.10
2018-05-23T08:45:46.692Z,18.10
2018-05-23T08:48:26.192Z,18.10
2018-05-23T08:51:18.272Z,18.60
2018-05-23T08:53:58.737Z,18.80
2018-05-23T08:56:32.675Z,18.70
2018-05-23T08:59:02.744Z,18.80
2018-05-23T09:01:34.357Z,18.80
2018-05-23T09:04:08.203Z,19.20
2018-05-23T09:06:36.522Z,19.50
2018-05-23T09:09:16.534Z,20.20
2018-05-23T09:11:45.980Z,20.50
2018-05-23T09:14:15.287Z,20.50
2018-05-23T09:16:49.242Z,21.10
2018-05-23T09:19:30.748Z,21.20
2018-05-23T09:25:00.520Z,21.00
2018-05-23T09:27:30.882Z,20.90
2018-05-23T09:30:03.892Z,21.10
2018-05-23T09:32:34.212Z,21.10
2018-05-23T09:35:03.370Z,21.10
2018-05-23T09:37:57.025Z,21.10
2018-05-23T09:40:25.329Z,21.10
2018-05-23T09:43:01.151Z,21.70
2018-05-23T09:45:34.243Z,21.70
2018-05-23T09:48:02.544Z,21.60
2018-05-23T09:50:41.468Z,22.20
2018-05-23T09:53:18.949Z,21.60
2018-05-23T09:55:48.777Z,21.60
2018-05-23T09:58:18.419Z,21.40
2018-05-23T10:00:52.732Z,21.40
2018-05-23T10:03:24.341Z,21.30
2018-05-23T10:05:54.684Z,21.90
2018-05-23T10:08:36.432Z,22.30
2018-05-23T10:11:09.439Z,22.20
2018-05-23T10:13:37.723Z,22.00
2018-05-23T10:16:10.112Z,21.80
2018-05-23T10:18:40.088Z,21.00
2018-05-23T10:21:24.961Z,21.00
2018-05-23T10:24:18.396Z,21.20
2018-05-23T10:26:54.852Z,21.30
2018-05-23T10:29:34.613Z,21.30
2018-05-23T10:32:24.267Z,21.60
2018-05-23T10:34:54.572Z,22.00
2018-05-23T10:37:27.145Z,22.40
2018-05-23T10:39:58.720Z,21.80
2018-05-23T10:42:30.400Z,22.10
2018-05-23T10:45:08.716Z,22.50
2018-05-23T10:47:56.789Z,22.50
2018-05-23T10:50:30.588Z,24.10
2018-05-23T10:53:12.646Z,24.10
2018-05-23T10:55:46.355Z,24.20
2018-05-23T10:58:21.910Z,24.30
2018-05-23T11:00:56.736Z,24.00
2018-05-23T11:03:28.823Z,24.20
2018-05-23T11:09:03.096Z,25.00
2018-05-23T11:11:37.040Z,25.00
2018-05-23T11:14:05.998Z,25.10
2018-05-23T11:16:37.033Z,25.20
2018-05-23T11:19:11.350Z,25.10
2018-05-23T11:21:41.680Z,25.00
2018-05-23T11:24:31.960Z,25.20
2018-05-23T11:27:15.028Z,24.70
2018-05-23T11:29:57.180Z,24.00
2018-05-23T11:32:27.518Z,24.80
2018-05-23T11:35:03.563Z,26.00
2018-05-23T11:37:46.077Z,27.80
2018-05-23T11:40:24.202Z,29.70
2018-05-23T11:43:09.644Z,29.30
2018-05-23T11:45:45.080Z,28.30
2018-05-23T11:48:14.608Z,29.90
2018-05-23T11:50:43.912Z,31.80
2018-05-23T11:53:36.299Z,31.20
2018-05-23T11:56:23.955Z,30.30
2018-05-23T11:58:53.570Z,29.70
2018-05-23T12:01:24.389Z,29.10
2018-05-23T12:03:56.102Z,30.70
2018-05-23T12:06:30.136Z,32.40
2018-05-23T12:09:09.231Z,32.50
2018-05-23T12:11:41.247Z,32.60
2018-05-23T12:14:16.623Z,31.50
2018-05-23T12:16:53.390Z,31.10
2018-05-23T12:19:23.892Z,31.10
2018-05-23T12:21:54.473Z,29.60
2018-05-23T12:24:36.211Z,29.00
2018-05-23T12:27:06.950Z,29.10
2018-05-23T12:29:35.343Z,28.30
2018-05-23T12:32:09.602Z,27.80
2018-05-23T12:34:57.551Z,28.20
2018-05-23T12:37:29.519Z,28.20
2018-05-23T12:40:15.683Z,30.10
2018-05-23T12:45:53.362Z,31.60
2018-05-23T12:48:29.440Z,32.80
2018-05-23T12:51:01.503Z,31.10
2018-05-23T12:53:34.319Z,31.00
2018-05-23T12:56:02.996Z,31.20
2018-05-23T12:58:35.597Z,31.90
2018-05-23T13:01:07.742Z,32.00
2018-05-23T13:03:38.149Z,32.20
2018-05-23T13:06:11.087Z,31.70
2018-05-23T13:08:40.578Z,32.10
2018-05-23T13:11:14.590Z,33.00
2018-05-23T13:13:53.993Z,33.00
2018-05-23T13:16:23.291Z,33.20
2018-05-23T13:18:51.611Z,33.60
2018-05-23T13:21:28.117Z,33.40
2018-05-23T13:24:01.031Z,33.40
2018-05-23T13:29:45.029Z,34.50
2018-05-23T13:32:25.163Z,36.20
2018-05-23T13:34:55.591Z,36.10
2018-05-23T13:37:49.554Z,36.30
2018-05-23T13:40:22.465Z,36.70
2018-05-23T13:43:00.882Z,36.00
2018-05-23T13:45:31.343Z,36.60
2018-05-23T13:48:01.368Z,36.30
2018-05-23T13:50:30.074Z,35.20
2018-05-23T13:52:58.367Z,33.20
2018-05-23T13:55:27.748Z,30.70
2018-05-23T13:57:58.712Z,30.30
2018-05-23T14:00:27.193Z,30.30
2018-05-23T14:02:56.489Z,30.00
2018-05-23T14:05:29.823Z,30.70
2018-05-23T14:08:07.899Z,33.50
2018-05-23T14:10:42.907Z,33.40
2018-05-23T14:13:22.625Z,32.10
2018-05-23T14:15:51.987Z,31.10
2018-05-23T14:18:24.704Z,32.30
2018-05-23T14:20:56.337Z,32.30
2018-05-23T14:23:28.883Z,34.40
2018-05-23T14:26:02.634Z,34.30
2018-05-23T14:28:32.994Z,34.40
2018-05-23T14:31:01.170Z,34.50
2018-05-23T14:33:29.506Z,35.90
2018-05-23T14:35:57.742Z,35.70
2018-05-23T14:38:25.993Z,36.40
2018-05-23T14:40:55.004Z,37.70
2018-05-23T14:43:23.378Z,37.30
2018-05-23T14:45:54.955Z,37.00
2018-05-23T14:48:31.600Z,37.30
2018-05-23T14:51:10.699Z,37.40
2018-05-23T14:54:10.320Z,37.30
2018-05-23T14:56:45.267Z,37.20
2018-05-23T14:59:21.024Z,37.50
2018-05-23T15:02:00.944Z,37.70
2018-05-23T15:04:36.012Z,38.20
2018-05-23T15:07:17.508Z,38.40
2018-05-23T15:09:45.801Z,37.90
2018-05-23T15:12:25.795Z,37.70
2018-05-23T15:15:05.729Z,36.80
2018-05-23T15:17:35.798Z,36.00
2018-05-23T15:20:15.145Z,35.90
2018-05-23T15:22:45.011Z,37.00
2018-05-23T15:25:13.324Z,37.30
2018-05-23T15:27:43.566Z,37.30
2018-05-23T15:30:17.450Z,37.30
2018-05-23T15:33:09.378Z,36.20
2018-05-23T15:35:45.455Z,35.60
2018-05-23T15:38:19.319Z,34.70
2018-05-23T15:40:49.576Z,35.40
2018-05-23T15:43:30.330Z,35.60
2018-05-23T15:46:04.485Z,35.90
2018-05-23T15:48:37.077Z,36.40
2018-05-23T15:51:11.132Z,35.30
2018-05-23T15:53:58.839Z,35.30
2018-05-23T15:56:30.333Z,35.30
2018-05-23T15:59:04.079Z,34.00
2018-05-23T16:01:37.081Z,32.30
2018-05-23T16:04:21.976Z,32.70
2018-05-23T16:07:11.384Z,32.60
2018-05-23T16:09:40.755Z,32.00
2018-05-23T16:12:22.387Z,31.70
2018-05-23T16:14:51.273Z,30.90
2018-05-23T16:17:19.551Z,31.10
2018-05-23T16:19:49.797Z,32.00
2018-05-23T16:22:18.204Z,32.80
2018-05-23T16:24:50.699Z,33.20
2018-05-23T16:27:26.187Z,32.70
2018-05-23T16:29:57.243Z,33.10
2018-05-23T16:32:37.910Z,33.00
2018-05-23T16:35:10.358Z,33.20
2018-05-23T16:37:38.625Z,32.80
2018-05-23T16:40:11.180Z,32.90
2018-05-23T16:42:40.040Z,33.50
2018-05-23T16:45:10.195Z,32.50
2018-05-23T16:47:39.365Z,30.90
2018-05-23T16:50:07.839Z,30.90
2018-05-23T16:52:44.656Z,30.90
2018-05-23T16:55:14.010Z,31.10
2018-05-23T16:57:43.262Z,31.80
2018-05-23T17:00:11.611Z,31.80
2018-05-23T17:02:40.926Z,31.70
2018-05-23T17:05:09.209Z,30.40
2018-05-23T17:07:38.267Z,28.70
2018-05-23T17:10:07.599Z,28.60
2018-05-23T17:12:36.945Z,28.20
2018-05-23T17:15:07.079Z,26.10
2018-05-23T17:17:37.405Z,26.00
2018-05-23T17:20:10.266Z,26.00
2018-05-23T17:22:41.343Z,25.60
2018-05-23T17:25:11.620Z,25.50
2018-05-23T17:27:43.654Z,25.30
2018-05-23T17:30:15.344Z,25.20
2018-05-23T17:32:49.691Z,24.80
2018-05-23T17:35:29.437Z,24.50
2018-05-23T17:37:59.743Z,24.10
2018-05-23T17:40:28.799Z,24.10
2018-05-23T17:42:58.117Z,24.10
2018-05-23T17:45:31.354Z,24.20
2018-05-23T17:48:01.627Z,24.00
2018-05-23T17:50:31.709Z,23.70
2018-05-23T17:53:01.084Z,23.60
2018-05-23T17:55:33.430Z,23.60
2018-05-23T17:58:07.255Z,23.60
2018-05-23T18:00:41.988Z,23.40
2018-05-23T18:03:11.077Z,23.40
2018-05-23T18:05:47.607Z,23.20
2018-05-23T18:08:15.899Z,23.10
2018-05-23T18:10:48.743Z,23.10
2018-05-23T18:13:48.732Z,22.90
2018-05-23T18:16:29.959Z,22.70
2018-05-23T18:19:08.883Z,22.70
2018-05-23T18:21:43.256Z,22.60
2018-05-23T18:24:12.411Z,22.40
2018-05-23T18:26:40.695Z,22.30
2018-05-23T18:29:09.054Z,22.20
2018-05-23T18:31:41.052Z,22.10
2018-05-23T18:34:12.872Z,22.00
2018-05-23T18:36:51.103Z,21.90
2018-05-23T18:39:19.378Z,21.70
2018-05-23T18:41:49.596Z,21.40
2018-05-23T18:44:18.171Z,21.30
2018-05-23T18:46:48.426Z,21.10
2018-05-23T18:49:22.948Z,21.00
2018-05-23T18:51:52.223Z,20.90
2018-05-23T18:54:33.693Z,20.80
2018-05-23T18:57:05.095Z,20.70
2018-05-23T18:59:47.110Z,20.60
2018-05-23T19:02:25.136Z,20.50
2018-05-23T19:05:00.144Z,20.50
2018-05-23T19:07:39.949Z,20.20
2018-05-23T19:10:08.374Z,20.20
2018-05-23T19:12:56.661Z,20.10
2018-05-23T19:15:25.910Z,20.10
2018-05-23T19:18:01.493Z,19.90
2018-05-23T19:20:30.846Z,19.80
2018-05-23T19:22:59.936Z,19.80
2018-05-23T19:25:28.688Z,19.70
2018-05-23T19:27:57.004Z,19.70
2018-05-23T19:30:25.263Z,19.70
2018-05-23T19:32:54.239Z,19.60
2018-05-23T19:35:24.528Z,19.60
2018-05-23T19:37:53.816Z,19.50
2018-05-23T19:40:25.496Z,19.60
2018-05-23T19:42:54.829Z,19.60
2018-05-23T19:45:24.117Z,19.80
2018-05-23T19:47:54.389Z,19.90
2018-05-23T19:50:23.457Z,19.90
2018-05-23T19:52:57.737Z,19.90
2018-05-23T19:55:31.562Z,19.90
2018-05-23T19:58:08.250Z,19.90
2018-05-23T20:00:47.177Z,19.90
2018-05-23T20:03:21.309Z,19.90
2018-05-23T20:05:49.560Z,19.90
2018-05-23T20:08:34.461Z,19.90
2018-05-23T20:11:09.522Z,19.80
2018-05-23T20:13:49.223Z,19.80
2018-05-23T20:16:18.307Z,19.80
2018-05-23T20:18:48.536Z,19.70
2018-05-23T20:21:18.637Z,19.70
2018-05-23T20:23:47.844Z,19.70
2018-05-23T20:26:18.169Z,19.60
2018-05-23T20:28:47.496Z,19.60
2018-05-23T20:31:17.795Z,19.50
2018-05-23T20:33:48.260Z,19.40
2018-05-23T20:36:18.351Z,19.20
2018-05-23T20:38:52.271Z,19.20
2018-05-23T20:41:25.011Z,19.20
2018-05-23T20:43:54.384Z,19.00
2018-05-23T20:46:26.450Z,18.90
2018-05-23T20:48:58.171Z,18.80
2018-05-23T20:51:28.497Z,18.70
2018-05-23T20:53:57.577Z,18.60
2018-05-23T20:56:25.959Z,18.50
2018-05-23T20:58:58.208Z,18.60
2018-05-23T21:01:27.279Z,18.50
2018-05-23T21:04:00.085Z,18.50
2018-05-23T21:06:29.440Z,18.40
2018-05-23T21:09:00.434Z,18.40
2018-05-23T21:11:39.523Z,18.40
2018-05-23T21:14:07.876Z,18.50
2018-05-23T21:16:50.832Z,18.60
2018-05-23T21:19:22.323Z,18.60
2018-05-23T21:21:54.243Z,18.50
2018-05-23T21:24:23.596Z,18.30
2018-05-23T21:27:02.447Z,18.30
2018-05-23T21:29:31.495Z,18.10
2018-05-23T21:32:10.182Z,18.10
2018-05-23T21:34:45.832Z,18.10
2018-05-23T21:37:20.704Z,18.10
2018-05-23T21:39:53.784Z,18.00
2018-05-23T21:42:22.096Z,18.00
2018-05-23T21:44:53.845Z,17.90
2018-05-23T21:47:23.276Z,17.90
2018-05-23T21:49:54.295Z,17.90
2018-05-23T21:52:25.775Z,17.90
2018-05-23T21:55:07.919Z,17.90
2018-05-23T21:57:39.544Z,17.90
2018-05-23T22:00:12.419Z,17.80
2018-05-23T22:03:00.057Z,17.80
2018-05-23T22:05:33.176Z,17.80
2018-05-23T22:08:05.817Z,17.80
2018-05-23T22:10:35.098Z,17.70
2018-05-23T22:13:05.250Z,17.70
2018-05-23T22:15:35.448Z,17.70
2018-05-23T22:18:09.909Z,17.70
2018-05-23T22:20:38.927Z,17.70
2018-05-23T22:23:13.526Z,17.70
2018-05-23T22:25:59.341Z,17.70
2018-05-23T22:28:38.079Z,17.70
2018-05-23T22:31:08.484Z,17.70
2018-05-23T22:33:42.787Z,17.60
2018-05-23T22:36:29.104Z,17.70
2018-05-23T22:39:02.657Z,17.60
2018-05-23T22:41:32.002Z,17.60
2018-05-23T22:44:07.074Z,17.60
2018-05-23T22:46:43.113Z,17.40
2018-05-23T22:49:17.502Z,17.40
2018-05-23T22:51:54.452Z,17.30
2018-05-23T22:54:22.830Z,17.20
2018-05-23T22:56:52.074Z,17.10
2018-05-23T22:59:22.318Z,17.00
2018-05-23T23:01:52.640Z,17.00
2018-05-23T23:04:28.271Z,16.90
2018-05-23T23:07:12.004Z,16.90
2018-05-23T23:09:43.723Z,16.80
2018-05-23T23:12:13.019Z,16.70
2018-05-23T23:14:43.080Z,16.50
2018-05-23T23:17:12.297Z,16.40
2018-05-23T23:19:45.483Z,16.40
2018-05-23T23:22:35.276Z,16.30
2018-05-23T23:25:06.319Z,16.40
2018-05-23T23:27:36.556Z,16.30
2018-05-23T23:30:12.262Z,16.30
2018-05-23T23:32:47.666Z,16.20
2018-05-23T23:35:25.702Z,16.30
2018-05-23T23:38:21.280Z,16.30
2018-05-23T23:40:54.095Z,16.30
2018-05-23T23:43:38.890Z,16.30
2018-05-23T23:46:13.920Z,16.30
2018-05-23T23:49:12.315Z,16.30
2018-05-23T23:51:46.032Z,16.40
2018-05-23T23:54:26.415Z,16.50
2018-05-23T23:57:03.320Z,16.50
2018-05-23T23:59:36.430Z,16.50
